Latest Weather Observations for Essendon Airport

IDV60801

Issued at 7:32 pm EDT Monday 25 October 2021 (issued every 10 minutes, with the page automatically refreshed every 10 minutes)

About weather observations | Map of weather stations | Latest weather observations for VIC | Other Formats
Station Details ID: 086038 Name: ESSENDON AIRPORT Lat: -37.73 Lon: 144.91 Height: 78.4 m
Data from the previous 72 hours. | See also: Recent months at Essendon Airport
Date/Time
EDT
Temp
°C
App
Temp
°C
Dew
Point
°C
Rel
Hum
%
Delta-T
°C
Wind Press
QNH
hPa
Press
MSL
hPa
Rain since
9am
mm
Dir  Spd
km/h
Gust
km/h
Spd
kts
Gust
kts
25/07:30pm 11.6 6.8 5.5 66 2.8 S 20 28 11 15 1020.6 1020.6 0.2
25/07:00pm 12.3 7.1 5.7 64 3.1 S 22 32 12 17 1020.6 1020.6 0.2
25/06:30pm 12.7 7.5 5.6 62 3.3 S 22 32 12 17 1020.4 1020.4 0.2
25/06:00pm 13.1 7.9 5.3 59 3.6 S 22 32 12 17 1020.4 1020.4 0.2
25/05:30pm 14.0 8.5 6.1 59 3.8 S 24 37 13 20 1020.4 1020.4 0.2
25/05:00pm 13.7 8.1 5.3 57 3.9 S 24 37 13 20 1020.4 1020.4 0.2
25/04:30pm 13.8 7.4 5.4 57 4.0 SSE 28 39 15 21 1020.3 1020.3 0.2
25/04:00pm 13.7 7.5 6.3 61 3.5 S 28 37 15 20 1020.4 1020.4 0.2
25/03:30pm 13.9 7.7 6.3 60 3.7 S 28 37 15 20 1020.4 1020.4 0.2
25/03:00pm 13.8 8.4 6.4 61 3.5 S 24 35 13 19 1020.7 1020.7 0.2
25/02:30pm 13.6 7.5 6.5 62 3.4 SSW 28 39 15 21 1020.8 1020.8 0.2
25/02:00pm 13.9 8.5 6.3 60 3.6 SSW 24 35 13 19 1021.0 1021.0 0.2
25/01:30pm 13.3 7.3 5.2 58 3.8 S 26 35 14 19 1021.3 1021.3 0.2
25/01:00pm 13.5 7.2 5.9 60 3.6 SSW 28 35 15 19 1021.4 1021.4 0.2
25/12:30pm 14.4 8.8 7.2 62 3.5 S 26 35 14 19 1021.4 1021.4 0.2
25/12:00pm 12.8 7.2 5.2 60 3.5 S 24 37 13 20 1021.5 1021.5 0.2
25/11:30am 12.9 6.4 4.8 58 3.7 SSW 28 41 15 22 1021.6 1021.6 0.2
25/11:00am 13.7 7.6 6.6 62 3.4 S 28 41 15 22 1021.7 1021.7 0.2
25/10:30am 12.5 8.0 6.8 68 2.7 SW 20 28 11 15 1021.9 1021.9 0.2
25/10:00am 11.6 7.2 7.5 76 2.0 SW 20 28 11 15 1021.8 1021.8 0.2
25/09:30am 10.2 6.0 7.4 83 1.3 WSW 19 26 10 14 1021.7 1021.7 0.2
25/09:00am 9.6 5.2 7.5 87 1.0 WSW 20 24 11 13 1021.7 1021.7 0.4
25/08:30am 10.3 5.9 7.2 81 1.5 SW 20 26 11 14 1021.5 1021.5 0.4
25/08:00am 9.7 6.7 7.6 87 1.0 WSW 13 20 7 11 1021.2 1021.2 0.4
25/07:30am 9.0 6.0 7.6 91 0.7 WSW 13 20 7 11 1021.0 1021.0 0.4
25/07:00am 9.1 5.6 7.4 89 0.8 SW 15 19 8 10 1020.8 1020.8 0.4
25/06:30am 9.3 5.7 6.7 84 1.2 SW 15 24 8 13 1020.7 1020.7 0.2
25/06:00am 9.5 5.8 6.2 80 1.5 SW 15 20 8 11 1020.6 1020.6 0.2
25/05:30am 10.1 5.8 5.3 72 2.2 SW 17 20 9 11 1020.2 1020.2 0.2
25/05:00am 10.1 5.2 5.3 72 2.2 SSW 20 30 11 16 1020.1 1020.1 0.2
25/04:30am 10.2 5.6 3.5 63 2.9 SSW 17 26 9 14 1020.3 1020.3 0.2
25/04:00am 9.6 5.3 5.4 75 1.9 WSW 17 20 9 11 1020.2 1020.2 0.2
25/03:30am 9.6 5.8 5.8 77 1.7 SW 15 20 8 11 1020.4 1020.4 0.2
25/03:00am 10.8 5.3 2.1 55 3.7 SSW 20 24 11 13 1020.5 1020.5 0.2
25/02:30am 10.4 5.2 3.4 62 3.1 SSW 20 28 11 15 1020.7 1020.7 0.2
25/02:00am 10.5 5.4 3.1 60 3.2 SSW 19 26 10 14 1021.2 1021.2 0.2
25/01:30am 10.1 5.4 5.3 72 2.2 SW 19 26 10 14 1021.5 1021.5 0.2
25/01:00am 9.9 5.4 6.1 77 1.8 SW 19 24 10 13 1021.7 1021.7 0.2
25/12:30am 10.0 5.3 6.0 76 1.9 SW 20 30 11 16 1021.9 1021.9 0.2
25/12:00am 10.1 5.5 5.7 74 2.0 SW 19 26 10 14 1022.0 1022.0 0.2
 
Date/Time
EDT
Temp
°C
App
Temp
°C
Dew
Point
°C
Rel
Hum
%
Delta-T
°C
Wind Press
QNH
hPa
Press
MSL
hPa
Rain since
9am
mm
Dir  Spd
km/h
Gust
km/h
Spd
kts
Gust
kts
24/11:30pm 10.1 5.3 5.5 73 2.1 SW 20 28 11 15 1022.1 1022.1 0.2
24/11:00pm 10.3 5.5 5.7 73 2.1 SW 20 28 11 15 1022.2 1022.2 0.2
24/10:30pm 10.7 5.7 6.3 74 2.1 SW 22 30 12 16 1022.4 1022.4 0.2
24/10:00pm 10.8 5.5 6.6 75 2.0 SW 24 35 13 19 1022.5 1022.5 0.2
24/09:30pm 11.0 5.3 5.1 67 2.7 SSW 24 32 13 17 1022.5 1022.5 0.2
24/09:00pm 11.0 5.3 4.7 65 2.8 SSW 24 35 13 19 1022.4 1022.4 0.2
24/08:30pm 11.2 5.5 5.1 66 2.8 SSW 24 32 13 17 1022.3 1022.3 0.2
24/08:00pm 11.3 5.9 6.2 71 2.4 SSW 24 32 13 17 1022.3 1022.3 0.2
24/07:30pm 11.7 5.5 6.0 68 2.7 SSW 28 39 15 21 1022.1 1022.1 0.2
24/07:00pm 11.9 6.1 6.2 68 2.7 S 26 43 14 23 1021.9 1021.9 0.2
24/06:30pm 12.3 5.7 5.9 65 3.0 S 30 41 16 22 1021.8 1021.8 0.2
24/06:00pm 13.3 7.4 5.7 60 3.6 S 26 39 14 21 1021.8 1021.8 0.2
24/05:30pm 13.1 6.3 5.0 58 3.8 S 30 44 16 24 1021.6 1021.6 0.2
24/05:00pm 12.7 5.6 6.3 65 3.0 S 33 43 18 23 1021.6 1021.6 0.2
24/04:30pm 12.9 6.0 4.8 58 3.7 S 30 41 16 22 1021.7 1021.7 0.2
24/04:00pm 13.3 7.4 5.7 60 3.6 S 26 41 14 22 1021.8 1021.8 0.2
24/03:30pm 14.3 8.0 5.9 57 4.0 S 28 41 15 22 1021.8 1021.8 0.2
24/03:00pm 14.0 7.6 5.4 56 4.0 S 28 41 15 22 1021.9 1021.9 0.2
24/02:30pm 13.8 7.3 6.4 61 3.6 S 30 43 16 23 1022.1 1022.1 0.2
24/02:17pm 14.6 8.7 7.6 63 3.5 S 28 46 15 25 1022.2 1022.2 0.2
24/02:00pm 14.1 7.9 6.2 59 3.8 S 28 37 15 20 1022.3 1022.3 0.2
24/01:30pm 14.1 7.4 7.2 63 3.4 S 32 41 17 22 1022.4 1022.4 0.2
24/01:00pm 14.1 7.6 6.7 61 3.6 S 30 41 16 22 1022.4 1022.4 0.2
24/12:30pm 14.0 7.2 7.1 63 3.4 SSW 32 43 17 23 1022.5 1022.5 0.2
24/12:00pm 13.4 7.3 6.5 63 3.3 SSW 28 37 15 20 1022.7 1022.7 0.2
24/11:30am 12.7 6.2 4.9 59 3.6 SSW 28 41 15 22 1022.8 1022.8 0.2
24/11:00am 10.3 3.9 8.6 89 0.8 SW 32 43 17 23 1023.0 1023.0 0.2
24/10:30am 11.4 6.6 7.5 77 1.9 SW 22 28 12 15 1022.5 1022.5 0.0
24/10:00am 12.7 8.1 8.0 73 2.3 SSW 22 30 12 16 1022.5 1022.5 0.0
24/09:30am 11.7 7.1 8.2 79 1.7 SSW 22 30 12 16 1022.5 1022.5 0.0
24/09:00am 10.7 6.8 8.6 87 1.0 SW 19 24 10 13 1022.6 1022.6 2.2
24/08:30am 10.1 5.8 7.9 86 1.1 WSW 20 26 11 14 1022.3 1022.3 2.2
24/08:00am 9.8 5.8 8.1 89 0.8 WSW 19 24 10 13 1022.2 1022.2 2.2
24/07:30am 9.1 4.8 7.7 91 0.7 WSW 20 24 11 13 1021.8 1021.8 2.2
24/07:00am 8.5 5.1 7.6 94 0.4 W 15 19 8 10 1021.6 1021.6 2.2
24/06:30am 8.3 4.4 7.2 93 0.5 W 17 20 9 11 1021.1 1021.1 2.2
24/06:00am 7.8 4.2 6.6 92 0.6 W 15 17 8 9 1021.0 1021.0 2.2
24/05:30am 8.4 4.5 6.9 90 0.7 W 17 20 9 11 1020.9 1020.9 2.2
24/05:00am 8.6 4.3 7.1 90 0.7 WSW 19 22 10 12 1020.7 1020.7 2.2
24/04:30am 8.1 3.8 6.9 92 0.6 W 19 22 10 12 1020.6 1020.6 2.2
24/04:00am 8.1 3.8 6.9 92 0.6 WSW 19 20 10 11 1020.4 1020.4 2.2
24/03:30am 8.7 3.9 7.3 91 0.7 WSW 22 30 12 16 1020.4 1020.4 2.2
24/03:00am 8.8 5.0 7.4 91 0.7 WSW 17 22 9 12 1020.5 1020.5 2.2
24/02:30am 9.1 4.8 7.7 91 0.7 WSW 20 28 11 15 1020.5 1020.5 2.2
24/02:00am 9.6 5.3 7.7 88 0.9 SW 20 28 11 15 1020.6 1020.6 2.2
24/01:30am 9.7 5.1 8.1 90 0.8 SW 22 28 12 15 1020.9 1020.9 2.2
24/01:00am 9.5 6.3 8.3 92 0.6 WSW 15 20 8 11 1020.9 1020.9 2.2
24/12:30am 9.8 7.0 8.7 93 0.5 SW 13 17 7 9 1021.1 1021.1 2.2
24/12:00am 9.6 6.4 8.5 93 0.5 WSW 15 20 8 11 1020.9 1020.9 2.0
 
Date/Time
EDT
Temp
°C
App
Temp
°C
Dew
Point
°C
Rel
Hum
%
Delta-T
°C
Wind Press
QNH
hPa
Press
MSL
hPa
Rain since
9am
mm
Dir  Spd
km/h
Gust
km/h
Spd
kts
Gust
kts
23/11:30pm 9.9 6.4 8.8 93 0.5 SW 17 22 9 12 1020.9 1020.9 2.0
23/11:00pm 10.1 5.7 8.9 92 0.6 SW 22 28 12 15 1020.9 1020.9 2.0
23/10:30pm 10.1 7.0 8.7 91 0.7 SW 15 19 8 10 1020.8 1020.8 2.0
23/10:00pm 10.6 5.8 8.9 89 0.8 SW 24 33 13 18 1020.8 1020.8 2.0
23/09:30pm 10.4 6.6 7.6 83 1.3 SSW 17 20 9 11 1020.5 1020.5 2.0
23/09:00pm 11.2 7.5 7.9 80 1.6 SSW 17 24 9 13 1020.0 1020.0 2.0
23/08:30pm 11.3 6.9 7.6 78 1.8 SSW 20 32 11 17 1019.6 1019.6 2.0
23/08:00pm 11.9 7.2 7.8 76 2.0 SSW 22 33 12 18 1019.2 1019.2 2.0
23/07:30pm 11.8 7.4 9.0 83 1.4 SSW 22 30 12 16 1018.6 1018.6 2.0
23/07:00pm 11.6 8.6 10.7 94 0.5 SSW 17 20 9 11 1018.2 1018.2 1.8
23/06:30pm 12.8 8.6 9.8 82 1.5 SSW 22 32 12 17 1017.8 1017.7 1.8
23/06:21pm 12.7 9.0 10.1 84 1.3 SW 20 26 11 14 1017.6 1017.5 1.8
23/06:11pm 12.8 9.4 10.5 86 1.2 SSW 19 24 10 13 1017.6 1017.5 1.8
23/06:00pm 12.6 9.2 10.7 88 1.0 SSW 19 24 10 13 1017.5 1017.4 1.8
23/05:30pm 12.2 7.9 10.8 91 0.7 SW 24 33 13 18 1017.4 1017.3 1.8
23/05:10pm 12.5 8.8 10.0 85 1.3 SSW 20 30 11 16 1017.1 1017.0 1.6
23/05:00pm 12.3 9.0 10.9 91 0.7 SSW 19 26 10 14 1017.0 1016.9 1.6
23/04:56pm 12.2 8.7 10.8 91 0.7 SSW 20 26 11 14 1017.0 1016.9 1.6
23/04:46pm 13.0 9.6 10.5 85 1.3 SSW 19 26 10 14 1016.8 1016.7 0.8
23/04:30pm 12.9 9.9 10.6 86 1.2 SSW 17 26 9 14 1016.7 1016.6 0.8
23/04:00pm 12.8 10.4 11.4 91 0.7 SSW 15 20 8 11 1016.5 1016.4 0.8
23/03:54pm 12.7 10.7 11.4 92 0.7 S 13 19 7 10 1016.6 1016.5 0.8
23/03:30pm 11.9 8.4 10.3 90 0.8 S 19 24 10 13 1016.6 1016.5 0.8
23/03:00pm 12.7 8.7 10.6 87 1.1 SSW 22 32 12 17 1016.7 1016.6 0.2
23/02:30pm 13.9 9.1 8.9 72 2.5 S 24 32 13 17 1016.2 1016.1 0.0
23/02:00pm 15.5 11.8 10.3 71 2.7 S 20 30 11 16 1016.0 1015.9 0.0
23/01:30pm 14.4 10.6 9.8 74 2.4 S 20 28 11 15 1016.0 1015.9 0.0
23/01:00pm 14.0 10.0 10.4 79 1.9 S 22 30 12 16 1016.0 1015.9 0.0
23/12:30pm 14.0 10.4 10.4 79 1.9 S 20 30 11 16 1015.9 1015.8 0.0
23/12:00pm 13.9 10.4 10.9 82 1.6 SSW 20 28 11 15 1015.8 1015.7 0.0
23/11:30am 13.1 10.7 11.3 89 1.0 SSW 15 22 8 12 1015.8 1015.7 0.0
23/11:05am 13.1 9.6 11.0 87 1.1 SSW 20 28 11 15 1015.6 1015.5 0.0
23/11:00am 13.4 9.9 10.9 85 1.3 SSW 20 28 11 15 1015.6 1015.5 0.0
23/10:30am 13.2 10.8 11.3 88 1.0 S 15 20 8 11 1015.5 1015.4 0.0
23/10:29am 13.3 10.9 11.4 88 1.0 S 15 20 8 11 1015.5 1015.4 0.0
23/10:00am 13.3 10.9 11.5 89 1.0 SSW 15 20 8 11 1015.4 1015.3 0.0
23/09:30am 12.8 10.0 11.5 92 0.7 SSW 17 20 9 11 1015.2 1015.1 0.0
23/09:19am 12.7 10.0 11.8 94 0.5 SSW 17 24 9 13 1015.2 1015.1 0.0
23/09:05am 12.9 11.0 12.9 100 0.0 SW 15 22 8 12 1015.0 1015.0 0.0
23/09:01am 12.7 10.7 12.7 100 0.0 SW 15 22 8 12 1014.9 1014.9 0.0
23/09:00am 12.6 10.5 12.4 99 0.1 SW 15 22 8 12 1014.9 1014.9 14.8
23/08:47am 12.6 10.6 12.6 100 0.0 SW 15 24 8 13 1014.8 1014.8 14.8
23/08:44am 12.6 10.6 12.6 100 0.0 SW 15 24 8 13 1014.8 1014.8 14.8
23/08:38am 12.4 10.3 12.4 100 0.0 SW 15 24 8 13 1014.8 1014.8 14.8
23/08:30am 12.7 10.3 12.7 100 0.0 SW 17 22 9 12 1014.7 1014.7 14.6
23/08:00am 12.5 11.2 12.5 100 0.0 SSW 11 15 6 8 1014.5 1014.5 14.6
23/07:46am 12.6 11.3 12.6 100 0.0 SSW 11 15 6 8 1014.4 1014.4 14.6
23/07:30am 12.4 10.7 12.4 100 0.0 SSW 13 17 7 9 1014.2 1014.2 14.4
23/07:26am 12.4 10.7 12.4 100 0.0 SSW 13 17 7 9 1014.2 1014.2 14.4
23/07:00am 12.4 9.9 12.4 100 0.0 SSW 17 22 9 12 1014.0 1014.0 14.4
23/06:37am 12.5 10.8 12.5 100 0.0 SSW 13 19 7 10 1014.0 1014.0 14.4
23/06:30am 12.4 11.1 12.4 100 0.0 SW 11 17 6 9 1014.0 1014.0 14.4
23/06:00am 12.5 9.1 12.5 100 0.0 SW 22 33 12 18 1013.6 1013.6 14.2
23/05:34am 12.9 11.0 12.9 100 0.0 SW 15 20 8 11 1013.7 1013.7 13.6
23/05:30am 12.8 10.8 12.8 100 0.0 WSW 15 20 8 11 1013.7 1013.7 13.6
23/05:00am 12.8 11.6 12.8 100 0.0 SW 11 15 6 8 1013.4 1013.4 13.4
23/04:35am 12.9 11.0 12.9 100 0.0 SW 15 19 8 10 1013.5 1013.5 13.4
23/04:30am 12.8 11.2 12.8 100 0.0 SW 13 19 7 10 1013.5 1013.5 13.4
23/04:00am 12.7 10.3 12.7 100 0.0 SW 17 22 9 12 1013.5 1013.5 13.4
23/03:30am 12.9 11.0 12.9 100 0.0 SW 15 20 8 11 1013.4 1013.4 13.4
23/03:00am 13.2 11.7 13.2 100 0.0 SW 13 19 7 10 1013.5 1013.5 13.4
23/02:30am 13.2 11.0 13.2 100 0.0 SW 17 24 9 13 1013.6 1013.6 13.4
23/02:00am 13.3 11.9 13.3 100 0.0 SSW 13 17 7 9 1013.5 1013.5 13.2
23/01:39am 13.3 11.9 13.3 100 0.0 SW 13 17 7 9 1014.0 1014.0 13.2
23/01:30am 13.5 11.8 13.5 100 0.0 SW 15 24 8 13 1014.2 1014.2 12.6
23/01:15am 13.6 12.3 13.6 100 0.0 WSW 13 17 7 9 1014.5 1014.5 11.4
23/01:00am 13.6 11.5 13.6 100 0.0 SSW 17 22 9 12 1014.1 1014.1 10.8
23/12:38am 13.6 11.5 13.6 100 0.0 SW 17 22 9 12 1014.1 1014.1 10.8
23/12:30am 13.7 11.6 13.7 100 0.0 SW 17 26 9 14 1014.2 1014.2 10.8
23/12:00am 14.0 11.7 14.0 100 0.0 SW 19 26 10 14 1014.1 1014.1 8.4
 
Date/Time
EDT
Temp
°C
App
Temp
°C
Dew
Point
°C
Rel
Hum
%
Delta-T
°C
Wind Press
QNH
hPa
Press
MSL
hPa
Rain since
9am
mm
Dir  Spd
km/h
Gust
km/h
Spd
kts
Gust
kts
22/11:55pm 14.1 12.2 14.1 100 0.0 SW 17 24 9 13 1014.0 1014.0 6.6
22/11:30pm 14.2 13.8 14.2 100 0.0 SW 9 15 5 8 1014.5 1014.5 5.0
22/11:00pm 14.1 12.6 14.1 100 0.0 SW 15 20 8 11 1014.1 1014.1 5.0
22/10:50pm 13.9 11.3 13.9 100 0.0 SW 20 28 11 15 1013.9 1013.9 5.0
22/10:30pm 13.9 11.0 13.9 100 0.0 SW 22 32 12 17 1013.9 1013.9 4.0
22/10:15pm 14.0 10.3 14.0 100 0.0 SW 26 35 14 19 1013.8 1013.8 2.6
22/10:11pm 14.1 10.1 14.1 100 0.0 SW 28 37 15 20 1014.3 1014.3 2.4
22/10:00pm 14.2 9.8 14.0 99 0.1 SW 30 41 16 22 1013.8 1013.8 1.4
22/09:53pm 14.4 10.4 14.1 98 0.2 WSW 28 37 15 20 1013.4 1013.4 1.2
22/09:30pm 15.1 12.2 14.0 93 0.6 WSW 22 28 12 15 1013.3 1013.3 0.0
22/09:00pm 15.0 13.0 13.9 93 0.6 SW 17 20 9 11 1012.4 1012.4 0.0
22/08:30pm 15.0 13.0 13.9 93 0.6 SW 17 22 9 12 1012.4 1012.4 0.0
22/08:00pm 15.2 13.3 14.1 93 0.6 SW 17 28 9 15 1012.3 1012.3 0.0

Other formats

Comma delimited format used in spreadsheet applications
http://www.bom.gov.au/fwo/IDV60801/IDV60801.95866.axf

JavaScript Object Notation format (JSON) in row-major order
http://www.bom.gov.au/fwo/IDV60801/IDV60801.95866.json

Data quality

Most of these data are generated automatically and are frequently updated. Quality checks on data are not normally performed. It is possible for incorrect values to appear. Refer to information at About Latest Weather Observations and please check the disclaimer before using these data.